createdAt,value
2022-11-10T00:02:27.488Z,11.67
2022-11-10T00:05:48.447Z,11.76
2022-11-10T00:09:10.432Z,11.67
2022-11-10T00:12:32.888Z,11.58
2022-11-10T00:16:12.863Z,11.62
2022-11-10T00:19:34.805Z,11.69
2022-11-10T00:22:56.556Z,11.62
2022-11-10T00:26:19.574Z,11.59
2022-11-10T00:29:43.095Z,11.60
2022-11-10T00:33:03.731Z,11.65
2022-11-10T00:36:24.614Z,11.66
2022-11-10T00:39:45.055Z,11.72
2022-11-10T00:43:05.861Z,11.80
2022-11-10T00:46:26.599Z,11.89
2022-11-10T00:49:47.371Z,11.86
2022-11-10T00:53:08.096Z,11.84
2022-11-10T00:56:29.031Z,11.83
2022-11-10T00:59:49.377Z,11.90
2022-11-10T01:03:15.252Z,11.77
2022-11-10T01:06:35.705Z,11.69
2022-11-10T01:09:56.441Z,11.65
2022-11-10T01:13:17.248Z,11.63
2022-11-10T01:16:37.924Z,11.69
2022-11-10T01:19:58.698Z,11.76
2022-11-10T01:23:19.676Z,11.72
2022-11-10T01:26:40.669Z,11.79
2022-11-10T01:30:01.897Z,11.93
2022-11-10T01:33:22.883Z,11.97
2022-11-10T01:36:43.825Z,11.86
2022-11-10T01:40:05.543Z,11.89
2022-11-10T01:43:27.487Z,11.90
2022-11-10T01:46:48.359Z,11.83
2022-11-10T01:50:09.360Z,11.83
2022-11-10T01:53:32.676Z,11.83
2022-11-10T01:56:59.565Z,11.84
2022-11-10T02:00:22.265Z,11.90
2022-11-10T02:03:45.893Z,11.83
2022-11-10T02:07:08.160Z,11.77
2022-11-10T02:10:28.928Z,11.84
2022-11-10T02:13:50.591Z,11.76
2022-11-10T02:17:12.237Z,11.84
2022-11-10T02:20:33.085Z,11.91
2022-11-10T02:23:54.352Z,12.03
2022-11-10T02:27:14.997Z,11.94
2022-11-10T02:30:35.867Z,11.93
2022-11-10T02:33:56.654Z,11.95
2022-11-10T02:37:17.404Z,12.07
2022-11-10T02:40:38.102Z,12.10
2022-11-10T02:44:06.716Z,12.08
2022-11-10T02:47:27.084Z,12.11
2022-11-10T02:50:54.045Z,12.13
2022-11-10T02:54:14.784Z,12.10
2022-11-10T02:57:35.510Z,11.94
2022-11-10T03:00:56.265Z,11.90
2022-11-10T03:04:16.768Z,11.87
2022-11-10T03:07:37.513Z,11.90
2022-11-10T03:10:58.188Z,11.83
2022-11-10T03:14:18.790Z,11.83
2022-11-10T03:17:39.695Z,11.89
2022-11-10T03:21:00.271Z,11.87
2022-11-10T03:24:20.937Z,11.79
2022-11-10T03:27:41.522Z,11.87
2022-11-10T03:31:02.193Z,11.86
2022-11-10T03:34:23.104Z,11.87
2022-11-10T03:37:44.743Z,12.04
2022-11-10T03:41:19.180Z,12.01
2022-11-10T03:44:41.432Z,11.95
2022-11-10T03:48:01.995Z,11.76
2022-11-10T03:51:22.912Z,11.80
2022-11-10T03:54:43.340Z,11.74
2022-11-10T03:58:04.634Z,11.77
2022-11-10T04:01:25.584Z,11.93
2022-11-10T04:05:04.897Z,11.86
2022-11-10T04:08:44.175Z,11.76
2022-11-10T04:12:25.179Z,11.84
2022-11-10T04:15:46.009Z,11.84
2022-11-10T04:19:06.590Z,11.69
2022-11-10T04:22:45.766Z,11.73
2022-11-10T04:26:29.594Z,11.79
2022-11-10T04:29:49.979Z,11.69
2022-11-10T04:33:10.759Z,11.66
2022-11-10T04:36:33.719Z,11.59
2022-11-10T04:39:54.694Z,11.50
2022-11-10T04:43:15.362Z,11.33
2022-11-10T04:46:38.483Z,11.36
2022-11-10T04:49:59.194Z,11.42
2022-11-10T04:53:20.800Z,11.47
2022-11-10T04:56:41.722Z,11.47
2022-11-10T05:00:02.536Z,11.52
2022-11-10T05:03:23.544Z,11.55
2022-11-10T05:06:44.474Z,11.62
2022-11-10T05:10:05.374Z,11.59
2022-11-10T05:13:25.830Z,11.66
2022-11-10T05:16:46.561Z,11.79
2022-11-10T05:20:08.004Z,11.86
2022-11-10T05:23:37.910Z,11.87
2022-11-10T05:26:58.818Z,11.97
2022-11-10T05:30:19.578Z,11.98
2022-11-10T05:33:40.431Z,12.00
2022-11-10T05:37:01.358Z,11.94
2022-11-10T05:40:25.689Z,11.97
2022-11-10T05:43:46.465Z,11.86
2022-11-10T05:47:06.926Z,11.91
2022-11-10T05:50:27.575Z,11.95
2022-11-10T05:53:48.369Z,11.89
2022-11-10T05:57:08.982Z,11.93
2022-11-10T06:00:31.775Z,11.73
2022-11-10T06:03:52.593Z,11.83
2022-11-10T06:07:13.351Z,11.69
2022-11-10T06:10:35.378Z,11.62
2022-11-10T06:13:55.871Z,11.55
2022-11-10T06:17:16.879Z,11.59
2022-11-10T06:20:37.848Z,11.62
2022-11-10T06:23:58.461Z,11.72
2022-11-10T06:27:19.066Z,11.82
2022-11-10T06:30:40.308Z,11.80
2022-11-10T06:34:02.751Z,11.79
2022-11-10T06:37:23.713Z,11.80
2022-11-10T06:40:44.464Z,11.79
2022-11-10T06:44:06.489Z,11.87
2022-11-10T06:47:27.587Z,11.83
2022-11-10T06:50:48.068Z,12.00
2022-11-10T06:54:09.051Z,12.01
2022-11-10T06:57:29.690Z,12.16
2022-11-10T07:00:50.633Z,12.10
2022-11-10T07:04:19.534Z,12.07
2022-11-10T07:07:41.540Z,12.04
2022-11-10T07:11:04.386Z,11.89
2022-11-10T07:14:25.291Z,11.90
2022-11-10T07:17:45.946Z,11.87
2022-11-10T07:21:06.928Z,11.84
2022-11-10T07:24:39.991Z,11.83
2022-11-10T07:28:04.800Z,11.97
2022-11-10T07:31:31.583Z,11.91
2022-11-10T07:34:52.484Z,11.91
2022-11-10T07:38:15.857Z,11.94
2022-11-10T07:41:36.543Z,11.95
2022-11-10T07:44:57.253Z,11.94
2022-11-10T07:48:18.195Z,11.91
2022-11-10T07:51:38.999Z,12.03
2022-11-10T07:55:01.923Z,11.97
2022-11-10T07:58:24.761Z,11.95
2022-11-10T08:01:48.497Z,12.00
2022-11-10T08:05:12.165Z,12.08
2022-11-10T08:08:34.109Z,12.07
2022-11-10T08:11:54.993Z,12.17
2022-11-10T08:15:15.912Z,12.08
2022-11-10T08:18:36.764Z,12.17
2022-11-10T08:21:57.449Z,12.17
2022-11-10T08:25:23.730Z,12.14
2022-11-10T08:28:44.292Z,12.08
2022-11-10T08:32:05.571Z,12.04
2022-11-10T08:35:28.189Z,12.08
2022-11-10T08:38:48.814Z,12.16
2022-11-10T08:42:09.563Z,12.16
2022-11-10T08:45:30.246Z,12.23
2022-11-10T08:48:51.056Z,12.34
2022-11-10T08:52:11.738Z,12.45
2022-11-10T08:55:34.026Z,12.42
2022-11-10T08:58:54.967Z,12.51
2022-11-10T09:02:15.781Z,12.40
2022-11-10T09:05:36.939Z,12.34
2022-11-10T09:09:00.237Z,12.44
2022-11-10T09:12:25.720Z,12.37
2022-11-10T09:15:49.501Z,12.42
2022-11-10T09:19:14.218Z,12.44
2022-11-10T09:22:37.656Z,12.32
2022-11-10T09:25:58.586Z,12.18
2022-11-10T09:29:19.538Z,12.30
2022-11-10T09:32:40.247Z,12.25
2022-11-10T09:36:02.107Z,12.32
2022-11-10T09:39:22.952Z,12.37
2022-11-10T09:42:44.321Z,12.28
2022-11-10T09:46:14.142Z,12.35
2022-11-10T09:49:46.611Z,12.46
2022-11-10T09:53:15.349Z,12.42
2022-11-10T09:56:37.577Z,12.40
2022-11-10T10:00:02.455Z,12.40
2022-11-10T10:03:26.711Z,12.34
2022-11-10T10:07:16.687Z,12.34
2022-11-10T10:10:39.579Z,12.42
2022-11-10T10:14:02.883Z,12.46
2022-11-10T10:17:40.788Z,12.41
2022-11-10T10:21:02.097Z,12.49
2022-11-10T10:24:27.587Z,12.44
2022-11-10T10:27:58.128Z,12.37
2022-11-10T10:31:27.812Z,12.40
2022-11-10T10:34:48.724Z,12.30
2022-11-10T10:38:37.817Z,12.30
2022-11-10T10:41:58.864Z,12.42
2022-11-10T10:45:32.502Z,12.72
2022-11-10T10:49:30.850Z,12.92
2022-11-10T10:53:16.163Z,12.89
2022-11-10T10:56:38.234Z,12.95
2022-11-10T11:00:17.866Z,13.00
2022-11-10T11:03:47.232Z,13.09
2022-11-10T11:07:28.208Z,13.20
2022-11-10T11:10:49.091Z,13.14
2022-11-10T11:14:24.417Z,13.32
2022-11-10T11:18:10.857Z,13.46
2022-11-10T11:21:37.156Z,13.37
2022-11-10T11:25:09.587Z,13.42
2022-11-10T11:28:41.592Z,13.65
2022-11-10T11:32:02.011Z,13.67
2022-11-10T11:35:32.013Z,13.70
2022-11-10T11:39:08.086Z,13.55
2022-11-10T11:42:51.929Z,13.58
2022-11-10T11:46:31.827Z,13.54
2022-11-10T11:50:04.777Z,13.70
2022-11-10T11:53:57.634Z,13.78
2022-11-10T11:57:26.937Z,13.64
2022-11-10T12:01:19.531Z,13.60
2022-11-10T12:05:27.673Z,13.54
2022-11-10T12:09:17.941Z,13.97
2022-11-10T12:12:56.924Z,14.25
2022-11-10T12:16:20.174Z,14.14
2022-11-10T12:20:19.664Z,14.05
2022-11-10T12:23:57.345Z,13.84
2022-11-10T12:27:32.253Z,14.22
2022-11-10T12:31:01.621Z,14.47
2022-11-10T12:34:22.947Z,16.19
2022-11-10T12:38:14.263Z,17.77
2022-11-10T12:41:43.622Z,21.12
2022-11-10T12:45:17.098Z,21.82
2022-11-10T12:49:07.788Z,19.30
2022-11-10T12:52:35.842Z,18.01
2022-11-10T12:56:02.714Z,17.26
2022-11-10T12:59:33.073Z,16.96
2022-11-10T13:02:55.543Z,16.63
2022-11-10T13:06:39.599Z,16.36
2022-11-10T13:10:23.491Z,16.05
2022-11-10T13:14:00.240Z,15.73
2022-11-10T13:17:27.818Z,15.48
2022-11-10T13:20:54.687Z,15.37
2022-11-10T13:24:26.696Z,15.11
2022-11-10T13:27:47.610Z,15.11
2022-11-10T13:31:41.853Z,14.84
2022-11-10T13:35:30.240Z,14.80
2022-11-10T13:38:55.633Z,14.86
2022-11-10T13:42:23.926Z,14.77
2022-11-10T13:45:46.004Z,14.76
2022-11-10T13:49:21.913Z,14.63
2022-11-10T13:53:08.458Z,14.47
2022-11-10T13:56:53.434Z,14.29
2022-11-10T14:00:13.773Z,14.19
2022-11-10T14:03:47.592Z,14.09
2022-11-10T14:07:18.912Z,14.01
2022-11-10T14:10:51.622Z,13.97
2022-11-10T14:14:28.850Z,13.85
2022-11-10T14:17:52.405Z,13.68
2022-11-10T14:21:23.103Z,13.51
2022-11-10T14:25:17.565Z,13.43
2022-11-10T14:28:38.105Z,13.36
2022-11-10T14:32:02.446Z,13.30
2022-11-10T14:35:25.826Z,13.28
2022-11-10T14:38:46.575Z,13.22
2022-11-10T14:42:07.150Z,13.12
2022-11-10T14:45:29.249Z,13.13
2022-11-10T14:48:57.729Z,13.03
2022-11-10T14:52:18.287Z,12.97
2022-11-10T14:55:44.142Z,12.96
2022-11-10T14:59:06.347Z,12.86
2022-11-10T15:02:27.275Z,12.76
2022-11-10T15:05:48.556Z,12.76
2022-11-10T15:09:22.424Z,12.73
2022-11-10T15:12:42.926Z,12.65
2022-11-10T15:16:25.371Z,12.56
2022-11-10T15:19:45.830Z,12.41
2022-11-10T15:23:22.806Z,12.28
2022-11-10T15:26:43.438Z,12.20
2022-11-10T15:30:24.132Z,12.11
2022-11-10T15:33:48.257Z,12.28
2022-11-10T15:37:29.128Z,12.24
2022-11-10T15:41:04.177Z,12.24
2022-11-10T15:44:28.027Z,12.25
2022-11-10T15:47:48.519Z,12.24
2022-11-10T15:51:12.521Z,12.27
2022-11-10T15:54:35.571Z,12.31
2022-11-10T15:57:56.433Z,12.28
2022-11-10T16:01:18.284Z,12.34
2022-11-10T16:04:38.855Z,12.28
2022-11-10T16:07:59.632Z,12.21
2022-11-10T16:11:21.557Z,12.24
2022-11-10T16:14:46.503Z,12.23
2022-11-10T16:18:16.137Z,12.25
2022-11-10T16:21:36.731Z,12.32
2022-11-10T16:24:57.154Z,12.37
2022-11-10T16:28:22.356Z,12.48
2022-11-10T16:31:43.290Z,12.66
2022-11-10T16:35:04.425Z,12.66
2022-11-10T16:38:27.212Z,12.69
2022-11-10T16:41:47.827Z,12.66
2022-11-10T16:45:14.866Z,12.66
2022-11-10T16:48:37.347Z,12.59
2022-11-10T16:51:57.942Z,12.65
2022-11-10T16:55:18.774Z,12.64
2022-11-10T16:58:39.451Z,12.72
2022-11-10T17:02:00.194Z,12.75
2022-11-10T17:05:20.813Z,12.73
2022-11-10T17:08:42.302Z,12.72
2022-11-10T17:12:02.902Z,12.69
2022-11-10T17:15:23.950Z,12.64
2022-11-10T17:18:45.107Z,12.68
2022-11-10T17:22:05.868Z,12.59
2022-11-10T17:25:28.466Z,12.65
2022-11-10T17:28:48.975Z,12.58
2022-11-10T17:32:09.573Z,12.62
2022-11-10T17:35:35.044Z,12.64
2022-11-10T17:38:59.690Z,12.64
2022-11-10T17:42:20.411Z,12.55
2022-11-10T17:45:41.172Z,12.61
2022-11-10T17:49:03.131Z,12.69
2022-11-10T17:52:24.318Z,12.66
2022-11-10T17:55:45.040Z,12.59
2022-11-10T17:59:05.800Z,12.64
2022-11-10T18:02:26.496Z,12.56
2022-11-10T18:05:47.714Z,12.58
2022-11-10T18:09:08.265Z,12.49
2022-11-10T18:12:29.127Z,12.45
2022-11-10T18:15:50.469Z,12.41
2022-11-10T18:19:17.549Z,12.35
2022-11-10T18:22:38.698Z,12.34
2022-11-10T18:26:07.442Z,12.24
2022-11-10T18:29:28.230Z,12.24
2022-11-10T18:32:48.933Z,12.17
2022-11-10T18:36:09.907Z,12.16
2022-11-10T18:39:30.521Z,12.03
2022-11-10T18:42:51.547Z,12.10
2022-11-10T18:46:12.300Z,12.11
2022-11-10T18:49:33.743Z,12.14
2022-11-10T18:52:54.148Z,12.10
2022-11-10T18:56:15.009Z,12.23
2022-11-10T18:59:35.683Z,12.27
2022-11-10T19:02:56.527Z,12.32
2022-11-10T19:06:17.449Z,12.32
2022-11-10T19:09:38.236Z,12.32
2022-11-10T19:12:58.850Z,12.30
2022-11-10T19:16:19.864Z,12.31
2022-11-10T19:19:40.872Z,12.25
2022-11-10T19:23:01.674Z,12.23
2022-11-10T19:26:23.738Z,12.30
2022-11-10T19:29:44.373Z,12.23
2022-11-10T19:33:05.484Z,12.24
2022-11-10T19:36:27.864Z,12.20
2022-11-10T19:39:48.476Z,12.23
2022-11-10T19:43:09.175Z,12.23
2022-11-10T19:46:34.098Z,12.20
2022-11-10T19:49:54.567Z,12.16
2022-11-10T19:53:16.396Z,12.18
2022-11-10T19:56:36.975Z,12.13
2022-11-10T19:59:57.684Z,12.18
2022-11-10T20:03:18.401Z,12.21
2022-11-10T20:06:39.066Z,12.16
2022-11-10T20:10:00.303Z,12.14
2022-11-10T20:13:21.275Z,12.16
2022-11-10T20:16:42.222Z,12.17
2022-11-10T20:20:03.828Z,12.20
2022-11-10T20:23:24.784Z,12.04
2022-11-10T20:26:45.691Z,11.98
2022-11-10T20:30:07.904Z,12.03
2022-11-10T20:33:29.505Z,11.89
2022-11-10T20:36:49.982Z,11.93
2022-11-10T20:40:43.364Z,11.86
2022-11-10T20:44:05.571Z,11.76
2022-11-10T20:47:28.119Z,11.59
2022-11-10T20:50:48.882Z,11.52
2022-11-10T20:54:09.554Z,11.44
2022-11-10T20:57:30.068Z,11.33
2022-11-10T21:00:50.850Z,11.23
2022-11-10T21:04:11.830Z,11.16
2022-11-10T21:07:32.278Z,11.09
2022-11-10T21:10:55.581Z,11.05
2022-11-10T21:14:16.796Z,11.01
2022-11-10T21:17:42.934Z,10.84
2022-11-10T21:21:05.058Z,10.85
2022-11-10T21:24:28.035Z,10.84
2022-11-10T21:27:48.450Z,10.67
2022-11-10T21:31:09.161Z,10.74
2022-11-10T21:34:29.853Z,10.75
2022-11-10T21:37:50.473Z,10.64
2022-11-10T21:41:11.082Z,10.64
2022-11-10T21:44:31.713Z,10.64
2022-11-10T21:47:52.624Z,10.70
2022-11-10T21:51:14.296Z,10.61
2022-11-10T21:54:35.172Z,10.60
2022-11-10T21:57:57.967Z,10.50
2022-11-10T22:01:22.303Z,10.53
2022-11-10T22:04:42.833Z,10.51
2022-11-10T22:08:03.827Z,10.49
2022-11-10T22:11:42.930Z,10.41
2022-11-10T22:15:22.570Z,10.34
2022-11-10T22:18:45.091Z,10.37
2022-11-10T22:22:06.069Z,10.32
2022-11-10T22:25:26.487Z,10.29
2022-11-10T22:28:47.503Z,10.13
2022-11-10T22:32:08.202Z,10.10
2022-11-10T22:35:44.058Z,9.96
2022-11-10T22:39:04.835Z,9.95
2022-11-10T22:42:43.711Z,9.83
2022-11-10T22:46:04.446Z,9.83
2022-11-10T22:49:25.125Z,9.78
2022-11-10T22:52:45.949Z,9.74
2022-11-10T22:56:06.899Z,9.65
2022-11-10T22:59:27.273Z,9.63
2022-11-10T23:02:47.930Z,9.68
2022-11-10T23:06:09.142Z,9.51
2022-11-10T23:09:29.734Z,9.57
2022-11-10T23:12:53.139Z,9.48
2022-11-10T23:16:16.465Z,9.47
2022-11-10T23:19:36.844Z,9.49
2022-11-10T23:22:57.539Z,9.31
2022-11-10T23:26:24.425Z,9.30
2022-11-10T23:29:44.985Z,9.23
2022-11-10T23:33:05.578Z,8.84
2022-11-10T23:36:27.520Z,8.42
2022-11-10T23:39:48.266Z,8.18
2022-11-10T23:43:08.937Z,7.75
2022-11-10T23:46:29.590Z,7.75
2022-11-10T23:49:50.169Z,7.77
2022-11-10T23:53:11.043Z,7.70
2022-11-10T23:56:31.730Z,7.59
2022-11-10T23:59:52.534Z,7.56
